• Join FlightAware (Why Join?)
  • Login
  • US Flag 
09:03PM EDT


 

Airport Tracker/Info


-or-


 

Live Flight TrackerFlight Track Log ✈ BER6771 ✈ 17-Apr-2013 ✈ EDDN / NUE - EDDL / DUS

Flight Track Log - Related Links

Times and Time Zones

All times are in EDT time to prevent confusion due to time zone crossing. See the BER6771 flight status page for this flight to view local times or setup timezone preferences in your user account.

Time Position Orientation Groundspeed Altitude Reporting Facility
EDT Latitude Longitude Course Direction KTS MPH feet Rate Location/Type
01:17AM 49.9146 10.1378 305° West  Level Estimated
01:18AM 49.9521 10.0515 304° West  Level Estimated
01:19AM 49.9894 9.9651 304° West  Level Estimated
01:20AM 50.0268 9.8786 304° West  Level Estimated
01:21AM 50.0640 9.7919 304° West  Level Estimated
01:22AM 50.1012 9.7051 304° West  Level Estimated
01:23AM 50.1383 9.6181 304° West  Level Estimated
01:24AM 50.1754 9.5310 304° West  Level Estimated
01:25AM 50.2123 9.4438 304° West  Level Estimated
01:26AM 50.2493 9.3565 303° West  Level Estimated
01:27AM 50.2861 9.2690 303° West  Level Estimated
01:28AM 50.3229 9.1813 303° West  Level Estimated
01:29AM 50.3596 9.0936 303° West  Level Estimated
01:30AM 50.3963 9.0057 303° West  Level Estimated
01:31AM 50.4329 8.9177 303° West  Level Estimated
01:32AM 50.4694 8.8295 303° West  Level Estimated
01:33AM 50.5059 8.7412 303° West  Level Estimated
01:34AM 50.5423 8.6527 303° West  Level Estimated
01:35AM 50.5786 8.5641 303° West  Level Estimated
01:36AM 50.6148 8.4754 303° West  Level Estimated
01:37AM 50.6510 8.3866 303° West  Level Estimated
01:38AM 50.6871 8.2976 303° West  Level Estimated
01:39AM 50.7232 8.2085 303° West  Level Estimated
01:40AM 50.7592 8.1192 303° West  Level Estimated
01:41AM 50.7951 8.0298 302° West  Level Estimated
01:42AM 50.8309 7.9402 302° West  Level Estimated
01:43AM 50.8667 7.8506 302° West  Level Estimated
01:44AM 50.9024 7.7607 302° West  Level Estimated
01:45AM 50.9381 7.6708 302° West  Level Estimated
01:46AM 50.9736 7.5807 302° West  Level Estimated
01:47AM 51.0091 7.4905 302° West  Level Estimated
01:48AM 51.0446 7.4001 302° West  Level Estimated
01:49AM 51.0799 7.3096 302° West  Level Estimated
01:50AM 51.1152 7.2190 302° West  Level Estimated
01:51AM 51.1504 7.1282 302° West  Level Estimated
01:52AM 51.1856 7.0373 302° West  Level Estimated
01:53AM 51.2207 6.9462 302° West  Level Estimated
01:54AM 51.2557 6.8550 302° West  Level Estimated
01:55AM 51.2895 6.7668 301° West  Level Estimated
01:56AM 51.2895 6.7668 314° West  Level Estimated
01:57AM 51.2895 6.7668 46° Northeast  Level Estimated
01:58AM 51.2895 6.7668 314° West  Level Estimated
01:59AM 51.2895 6.7668 46° Northeast  Level Estimated
02:00AM 51.2895 6.7668 314° West  Level Estimated
02:01AM 51.2895 6.7668 46° Northeast  Level Estimated
02:02AM 51.2895 6.7668 314° West  Level Estimated
02:03AM 51.2895 6.7668 46° Northeast  Level Estimated
02:04AM 51.2895 6.7668 314° West  Level Estimated
02:05AM 51.2895 6.7668 46° Northeast  Level Estimated
02:06AM 51.2895 6.7668 314° West  Level Estimated
02:07AM 51.2895 6.7668 46° Northeast  Level Estimated
02:08AM 51.2895 6.7668 314° West  Level Estimated
02:09AM 51.2895 6.7668 46° Northeast  Level Estimated
02:10AM 51.2895 6.7668 314° West  Level Estimated
02:11AM 51.2895 6.7668 46° Northeast  Level Estimated